Time;durP1;ratioP1;P1;durP2;ratioP2;P2;SDS_P1;SDS_P2;PMS_P1;PMS_P2;Temp;Humidity;BMP_temperature;BMP_pressure;BME280_temperature;BME280_humidity;BME280_pressure;Samples;Min_cycle;Max_cycle;Signal;HPM_P1;HPM_P2
2022/08/17 00:00:56;;;;;;;31.83;28.57;;;;;;;24.17;58.64;100714.81;5038627;28;20750;-74
2022/08/17 00:03:34;;;;;;;29.63;26.73;;;;;;;24.13;58.58;100713.22;5038349;28;20468;-74
2022/08/17 00:06:07;;;;;;;27.97;25.00;;;;;;;24.02;59.16;100719.06;5037537;28;20436;-72
2022/08/17 00:08:36;;;;;;;27.00;24.43;;;;;;;23.80;59.61;100719.19;5038490;28;20413;-74
2022/08/17 00:11:05;;;;;;;24.80;22.60;;;;;;;23.97;59.38;100720.22;5038628;28;20728;-72
2022/08/17 00:13:40;;;;;;;25.77;23.47;;;;;;;23.68;60.18;100709.94;5038415;28;20543;-71
2022/08/17 00:16:10;;;;;;;27.23;21.33;;;;;;;23.87;59.97;100712.63;5038496;28;20742;-71
2022/08/17 00:18:35;;;;;;;24.40;22.20;;;;;;;24.01;59.51;100716.47;5037774;28;20567;-71
2022/08/17 00:21:02;;;;;;;24.37;22.00;;;;;;;23.76;60.55;100722.91;5038899;28;20496;-72
2022/08/17 00:23:28;;;;;;;25.20;22.77;;;;;;;23.70;60.48;100717.84;5038302;28;20288;-71
2022/08/17 00:25:54;;;;;;;25.83;23.37;;;;;;;23.68;60.78;100715.25;5038160;28;20465;-72
2022/08/17 00:28:19;;;;;;;29.03;26.23;;;;;;;23.55;61.38;100714.09;5038681;28;20538;-71
2022/08/17 00:30:47;;;;;;;29.37;26.83;;;;;;;23.46;61.48;100712.72;5038322;28;20170;-71
2022/08/17 00:33:19;;;;;;;33.37;30.30;;;;;;;23.50;61.60;100716.09;5038230;28;20250;-72
2022/08/17 00:35:46;;;;;;;29.57;26.97;;;;;;;23.49;61.80;100715.25;5038471;28;20449;-73
2022/08/17 00:38:12;;;;;;;31.73;28.33;;;;;;;23.77;60.94;100708.66;5037989;28;20789;-72
2022/08/17 00:40:45;;;;;;;27.70;25.13;;;;;;;23.43;61.73;100714.66;5038097;28;20548;-73
2022/08/17 00:43:30;;;;;;;28.53;25.87;;;;;;;23.36;61.87;100714.91;5037665;28;20601;-74
2022/08/17 00:45:57;;;;;;;29.83;27.10;;;;;;;23.37;61.90;100721.13;5037841;28;20828;-71
2022/08/17 00:48:22;;;;;;;29.47;26.80;;;;;;;23.49;62.04;100715.25;5037827;28;20433;-72
2022/08/17 00:50:57;;;;;;;26.97;24.33;;;;;;;23.57;61.31;100720.22;5037947;28;20761;-73
2022/08/17 00:53:24;;;;;;;28.17;25.90;;;;;;;23.33;62.16;100714.19;5037911;28;20520;-70
2022/08/17 00:55:50;;;;;;;27.47;25.17;;;;;;;23.46;62.35;100720.72;5036881;28;20547;-70
2022/08/17 00:58:15;;;;;;;25.40;23.23;;;;;;;23.63;61.41;100719.06;5037997;28;20860;-70
2022/08/17 01:00:43;;;;;;;26.17;23.83;;;;;;;23.49;61.75;100715.25;5038529;28;20166;-70
2022/08/17 01:03:13;;;;;;;26.60;24.37;;;;;;;23.82;61.46;100711.09;5037309;28;20216;-72
2022/08/17 01:05:39;;;;;;;28.53;25.73;;;;;;;23.62;62.08;100720.00;5037852;28;20456;-73
2022/08/17 01:08:08;;;;;;;27.90;25.37;;;;;;;23.55;62.43;100719.41;5037796;28;20478;-73
2022/08/17 01:10:43;;;;;;;29.23;26.40;;;;;;;23.53;62.23;100715.97;5040371;28;20468;-72
2022/08/17 01:13:10;;;;;;;30.73;26.13;;;;;;;23.53;62.43;100716.81;5041892;28;20514;-71
2022/08/17 01:15:38;;;;;;;27.93;25.70;;;;;;;23.61;61.99;100715.59;5040876;28;20477;-72
2022/08/17 01:18:07;;;;;;;29.57;26.77;;;;;;;23.33;63.09;100715.06;5041191;28;20805;-70
2022/08/17 01:20:32;;;;;;;29.73;27.23;;;;;;;23.55;63.02;100722.94;5041595;28;20397;-70
2022/08/17 01:22:59;;;;;;;30.77;27.63;;;;;;;23.43;63.30;100720.81;5041470;28;20465;-71
2022/08/17 01:25:24;;;;;;;30.30;27.57;;;;;;;23.48;63.01;100728.63;5041167;28;20208;-72
2022/08/17 01:27:49;;;;;;;29.17;26.57;;;;;;;23.50;63.13;100722.28;5041119;28;20448;-72
2022/08/17 01:30:16;;;;;;;28.47;25.90;;;;;;;23.54;62.92;100718.56;5041223;28;20178;-71
2022/08/17 01:32:41;;;;;;;29.47;26.87;;;;;;;23.30;63.89;100720.50;5041704;28;20181;-71
2022/08/17 01:35:07;;;;;;;29.50;27.00;;;;;;;23.45;63.88;100724.28;5041486;28;20413;-72
2022/08/17 01:37:38;;;;;;;29.33;26.70;;;;;;;23.40;63.99;100718.31;5040549;28;20441;-71
2022/08/17 01:40:21;;;;;;;31.70;28.63;;;;;;;23.17;64.71;100725.50;5041152;28;20720;-71
2022/08/17 01:42:56;;;;;;;31.13;28.13;;;;;;;23.13;64.85;100731.03;5040521;28;20475;-71
2022/08/17 01:45:29;;;;;;;32.30;29.50;;;;;;;23.12;65.15;100731.91;5041132;28;20567;-76
2022/08/17 01:47:55;;;;;;;32.07;29.20;;;;;;;23.04;65.79;100729.56;5041225;28;20492;-76
2022/08/17 01:50:31;;;;;;;30.47;27.57;;;;;;;22.88;65.76;100734.69;5041337;28;20499;-76
2022/08/17 01:53:06;;;;;;;31.77;28.90;;;;;;;22.99;65.90;100734.25;5041461;28;20420;-75
2022/08/17 01:55:37;;;;;;;32.60;29.60;;;;;;;22.95;65.85;100733.50;5040862;28;20578;-75
2022/08/17 01:58:07;;;;;;;35.00;31.60;;;;;;;22.95;65.90;100740.59;5040405;28;20408;-77
2022/08/17 02:00:33;;;;;;;30.70;27.80;;;;;;;22.80;66.60;100723.50;5040876;28;20672;-74
2022/08/17 02:02:58;;;;;;;32.03;28.90;;;;;;;22.66;67.16;100726.72;5040574;28;20452;-75
2022/08/17 02:05:24;;;;;;;33.90;30.80;;;;;;;22.88;66.30;100724.91;5040805;28;20181;-74
2022/08/17 02:07:50;;;;;;;35.50;31.10;;;;;;;22.70;67.00;100720.38;5041460;28;20213;-80
2022/08/17 02:10:15;;;;;;;33.30;30.30;;;;;;;22.76;66.80;100720.13;5042305;28;20174;-82
2022/08/17 02:12:41;;;;;;;34.53;31.47;;;;;;;22.68;66.91;100716.91;5041967;28;20420;-81
2022/08/17 02:15:08;;;;;;;34.57;31.17;;;;;;;22.71;66.93;100727.41;5041369;28;20162;-81
2022/08/17 02:17:34;;;;;;;32.40;29.60;;;;;;;22.58;67.52;100729.69;5041071;28;20166;-82
2022/08/17 02:19:59;;;;;;;33.17;30.13;;;;;;;22.69;66.99;100726.59;5040070;28;20884;-81
2022/08/17 02:22:26;;;;;;;34.30;31.20;;;;;;;22.73;66.86;100732.66;5040101;28;20194;-81
2022/08/17 02:24:52;;;;;;;33.60;30.60;;;;;;;22.71;66.70;100728.28;5041216;28;20408;-81
2022/08/17 02:27:18;;;;;;;34.23;31.13;;;;;;;22.88;66.42;100730.25;5040649;28;20424;-81
2022/08/17 02:29:43;;;;;;;35.47;32.20;;;;;;;22.68;67.02;100727.56;5041738;28;20436;-81
2022/08/17 02:32:18;;;;;;;33.93;30.87;;;;;;;22.84;66.74;100725.97;5041142;28;20166;-82
2022/08/17 02:34:44;;;;;;;34.80;31.60;;;;;;;22.59;67.15;100730.59;5041095;28;20220;-80
2022/08/17 02:37:09;;;;;;;32.93;30.17;;;;;;;22.55;67.33;100727.16;5041162;28;20809;-81
2022/08/17 02:39:35;;;;;;;31.30;28.57;;;;;;;22.65;67.55;100732.97;5045734;28;20174;-81
2022/08/17 02:42:02;;;;;;;33.53;30.53;;;;;;;22.71;66.71;100722.09;5058119;28;20474;-81
2022/08/17 02:44:27;;;;;;;34.10;30.77;;;;;;;22.40;67.74;100728.66;5041377;28;20178;-81
2022/08/17 02:46:52;;;;;;;35.17;32.07;;;;;;;22.71;67.42;100722.09;5040703;28;20863;-81
2022/08/17 02:49:18;;;;;;;33.70;30.60;;;;;;;22.87;66.94;100723.19;5040670;28;20179;-81
2022/08/17 02:51:43;;;;;;;33.63;30.53;;;;;;;22.58;67.60;100726.19;5040290;28;20170;-81
2022/08/17 02:54:08;;;;;;;34.30;31.30;;;;;;;22.63;67.37;100719.75;5040471;28;20232;-79
2022/08/17 02:56:34;;;;;;;35.43;32.60;;;;;;;22.63;67.67;100716.25;5041322;28;20546;-81
2022/08/17 02:58:59;;;;;;;34.50;31.40;;;;;;;22.52;67.47;100717.53;5040871;28;20228;-82
2022/08/17 03:01:26;;;;;;;34.70;31.33;;;;;;;22.69;67.34;100708.00;5040479;28;20186;-82
2022/08/17 03:03:52;;;;;;;35.67;32.23;;;;;;;22.50;67.63;100718.53;5040743;28;20190;-78
2022/08/17 03:06:18;;;;;;;32.10;29.30;;;;;;;22.70;66.95;100720.38;5039931;28;20678;-78
2022/08/17 03:08:43;;;;;;;34.97;31.83;;;;;;;22.65;67.25;100722.34;5039945;28;20428;-79
2022/08/17 03:11:09;;;;;;;32.77;29.90;;;;;;;22.77;66.85;100726.28;5041024;28;20166;-81
2022/08/17 03:13:34;;;;;;;34.23;31.30;;;;;;;22.73;66.93;100720.22;5040628;28;20591;-80
2022/08/17 03:16:00;;;;;;;35.07;32.03;;;;;;;22.75;66.80;100726.34;5040209;28;20177;-78
2022/08/17 03:18:26;;;;;;;35.77;32.43;;;;;;;22.46;67.85;100722.22;5040325;28;20197;-79
2022/08/17 03:20:55;;;;;;;34.80;31.73;;;;;;;22.56;67.80;100714.78;5040035;28;20170;-79
2022/08/17 03:23:20;;;;;;;35.90;32.80;;;;;;;22.42;68.03;100732.13;5039816;28;20488;-78
2022/08/17 03:25:46;;;;;;;35.57;31.77;;;;;;;22.70;67.00;100733.66;5039481;28;20425;-79
2022/08/17 03:28:11;;;;;;;34.33;31.00;;;;;;;22.69;67.03;100721.28;5039965;28;20166;-78
2022/08/17 03:30:37;;;;;;;33.07;29.90;;;;;;;22.75;66.49;100730.81;5039968;28;20430;-79
2022/08/17 03:33:05;;;;;;;38.30;34.90;;;;;;;22.43;67.20;100727.66;5039936;28;20163;-78
2022/08/17 03:35:33;;;;;;;34.27;31.23;;;;;;;22.66;66.84;100722.31;5039905;28;20423;-79
2022/08/17 03:37:59;;;;;;;38.10;34.33;;;;;;;22.83;66.47;100723.38;5038594;28;20471;-79
2022/08/17 03:40:25;;;;;;;36.83;33.53;;;;;;;22.66;66.99;100724.06;5039695;28;20401;-78
2022/08/17 03:42:53;;;;;;;38.73;34.97;;;;;;;22.40;67.89;100735.78;5039044;28;20884;-78
2022/08/17 03:56:41;;;;;;;39.50;35.67;;;;;;;22.38;68.32;100741.16;5039214;28;20205;-79
2022/08/17 03:56:43;;;;;;;35.80;32.60;;;;;;;22.05;69.71;100730.88;5039021;28;20507;-78
2022/08/17 03:59:15;;;;;;;37.87;34.37;;;;;;;21.95;69.68;100737.47;5039490;28;20421;-81
2022/08/17 04:01:41;;;;;;;38.77;35.03;;;;;;;22.15;69.51;100734.91;5039436;28;20425;-80
2022/08/17 04:04:07;;;;;;;37.53;34.00;;;;;;;21.85;69.85;100736.94;5038998;28;20463;-80
2022/08/17 04:06:32;;;;;;;37.00;33.63;;;;;;;21.97;69.54;100735.59;5039421;28;20496;-79
2022/08/17 04:08:58;;;;;;;36.70;33.03;;;;;;;21.98;69.76;100742.66;5039738;28;20179;-80
2022/08/17 04:11:23;;;;;;;37.57;33.77;;;;;;;22.07;70.02;100742.31;5039167;28;20170;-80
2022/08/17 04:13:48;;;;;;;38.37;34.73;;;;;;;22.14;69.50;100743.78;5039234;28;20236;-80
2022/08/17 04:16:14;;;;;;;38.33;35.00;;;;;;;22.34;68.23;100735.09;5040893;28;20253;-80
2022/08/17 04:18:39;;;;;;;38.47;35.10;;;;;;;22.09;68.99;100736.94;5039311;28;20174;-80
2022/08/17 04:21:07;;;;;;;38.23;34.67;;;;;;;21.52;70.80;100740.72;5039373;28;20178;-80
2022/08/17 04:23:35;;;;;;;35.87;32.63;;;;;;;21.66;70.94;100742.06;5039097;28;20218;-80
2022/08/17 04:26:01;;;;;;;36.70;33.27;;;;;;;21.90;70.08;100747.41;5038337;28;20725;-81
2022/08/17 04:28:26;;;;;;;34.83;31.70;;;;;;;22.12;69.63;100742.13;5038526;28;20441;-80
2022/08/17 04:30:52;;;;;;;36.77;33.10;;;;;;;22.25;68.62;100739.88;5039033;28;20406;-80
2022/08/17 04:33:20;;;;;;;34.30;31.30;;;;;;;22.49;67.86;100740.72;5039006;28;20578;-79
2022/08/17 04:35:49;;;;;;;34.27;31.10;;;;;;;22.52;68.25;100738.78;5038903;28;20528;-79
2022/08/17 04:38:20;;;;;;;34.77;31.47;;;;;;;22.26;68.74;100739.81;5038908;28;20409;-79
2022/08/17 04:43:31;;;;;;;33.77;30.43;;;;;;;22.45;67.71;100742.63;5038178;28;20558;-79
2022/08/17 04:46:08;;;;;;;33.30;30.57;;;;;;;22.92;66.46;100746.03;5043036;28;20440;-79
2022/08/17 04:48:39;;;;;;;33.43;30.23;;;;;;;22.79;66.21;100746.56;5043232;28;20412;-79
2022/08/17 04:51:15;;;;;;;32.17;29.17;;;;;;;22.75;66.79;100742.31;5043069;28;20719;-79
2022/08/17 04:53:43;;;;;;;33.57;30.77;;;;;;;22.67;67.22;100749.72;5042737;28;20747;-80
2022/08/17 04:56:09;;;;;;;29.90;27.13;;;;;;;23.13;65.58;100750.50;5042439;28;20465;-80
2022/08/17 04:58:34;;;;;;;30.97;28.43;;;;;;;22.62;67.07;100757.03;5042922;28;20429;-80
2022/08/17 05:01:00;;;;;;;31.03;28.40;;;;;;;22.99;65.96;100747.53;5042264;28;20449;-79
2022/08/17 05:03:27;;;;;;;24.43;22.27;;;;;;;24.13;65.04;100749.66;5042223;28;20273;-73
2022/08/17 05:05:52;;;;;;;20.53;18.80;;;;;;;24.42;61.70;100744.72;5041922;28;20257;-70
2022/08/17 05:08:18;;;;;;;27.63;25.17;;;;;;;24.76;60.47;100754.66;5042451;28;20844;-75
2022/08/17 05:10:44;;;;;;;16.60;15.30;;;;;;;25.98;57.58;100744.78;5042345;28;20535;-75
2022/08/17 05:13:14;;;;;;;20.17;16.63;;;;;;;25.89;56.61;100741.69;5041714;28;20423;-73
2022/08/17 05:15:40;;;;;;;28.43;25.53;;;;;;;25.87;56.02;100750.72;5042115;28;20537;-70
2022/08/17 05:18:06;;;;;;;27.67;25.30;;;;;;;24.45;59.08;100750.78;5041481;28;20420;-75
2022/08/17 05:20:33;;;;;;;30.40;27.80;;;;;;;22.49;64.50;100765.47;5041365;28;20405;-71
2022/08/17 05:23:03;;;;;;;29.47;27.10;;;;;;;22.11;67.96;100761.63;5041783;28;20452;-71
2022/08/17 05:25:30;;;;;;;28.77;26.10;;;;;;;23.13;64.85;100755.81;5041327;28;20425;-70
2022/08/17 05:27:56;;;;;;;27.73;25.23;;;;;;;23.12;64.14;100756.69;5040214;28;20444;-71
2022/08/17 05:30:24;;;;;;;30.40;27.90;;;;;;;22.59;66.80;100759.81;5041837;28;20778;-69
2022/08/17 05:32:55;;;;;;;24.17;22.07;;;;;;;23.62;63.17;100751.94;5021517;28;20178;-70
2022/08/17 05:35:21;;;;;;;26.97;24.33;;;;;;;25.03;58.61;100757.72;5027073;28;20420;-70
2022/08/17 05:37:47;;;;;;;28.70;26.23;;;;;;;24.00;60.55;100755.56;5041703;28;20405;-70
2022/08/17 05:40:13;;;;;;;27.10;24.70;;;;;;;25.41;57.15;100759.41;5041085;28;20650;-71
2022/08/17 05:42:38;;;;;;;26.00;23.80;;;;;;;25.61;56.17;100760.13;5041022;28;20567;-71
2022/08/17 05:45:05;;;;;;;25.53;23.13;;;;;;;26.67;52.85;100756.09;5052707;28;20456;-70
2022/08/17 05:47:30;;;;;;;25.23;23.20;;;;;;;25.87;54.77;100758.72;5040166;28;20170;-71
2022/08/17 05:49:57;;;;;;;20.27;18.47;;;;;;;27.32;51.83;100757.66;5040764;28;20430;-71
2022/08/17 05:52:25;;;;;;;23.10;21.30;;;;;;;25.82;55.07;100761.66;5040599;28;20158;-71
2022/08/17 05:55:10;;;;;;;23.00;21.13;;;;;;;27.45;51.06;100758.69;5056101;28;20502;-71
2022/08/17 05:57:51;;;;;;;23.47;21.67;;;;;;;27.12;51.20;100757.06;5056588;28;20432;-74
2022/08/17 06:00:27;;;;;;;22.67;20.70;;;;;;;27.56;50.50;100755.34;5040585;28;20482;-75
2022/08/17 06:03:00;;;;;;;21.90;20.10;;;;;;;27.65;50.28;100759.28;5040582;28;20449;-75
2022/08/17 06:05:58;;;;;;;22.10;19.80;;;;;;;28.45;48.21;100772.13;5040194;28;20413;-76
2022/08/17 06:08:38;;;;;;;27.73;20.53;;;;;;;29.38;46.40;100764.19;5040568;28;20483;-76
2022/08/17 06:11:21;;;;;;;20.90;19.10;;;;;;;28.49;48.17;100777.19;5040495;28;20427;-76
2022/08/17 06:14:10;;;;;;;20.47;18.70;;;;;;;29.26;45.70;100770.41;5040311;28;20420;-75
2022/08/17 06:16:42;;;;;;;21.77;19.77;;;;;;;27.35;49.28;100779.78;5043669;28;20405;-75
2022/08/17 06:19:16;;;;;;;20.77;18.77;;;;;;;27.59;49.07;100775.72;5041017;28;20507;-75
2022/08/17 06:21:43;;;;;;;20.40;18.70;;;;;;;29.11;46.81;100767.75;5040436;28;20528;-75
2022/08/17 06:24:26;;;;;;;20.43;18.83;;;;;;;30.18;43.96;100758.53;5039376;28;20547;-75
2022/08/17 06:26:54;;;;;;;19.60;17.90;;;;;;;29.31;45.64;100768.25;5039653;28;20417;-79
2022/08/17 06:29:36;;;;;;;19.77;18.30;;;;;;;29.48;45.37;100772.44;5039524;28;20424;-75
2022/08/17 06:32:02;;;;;;;18.70;17.20;;;;;;;31.71;40.82;100760.47;5039539;28;20464;-74
2022/08/17 06:34:28;;;;;;;19.80;18.17;;;;;;;30.36;43.07;100771.59;5039831;28;20413;-74
2022/08/17 06:37:21;;;;;;;19.50;17.77;;;;;;;29.23;45.49;100774.97;5040040;28;20408;-75
2022/08/17 06:40:05;;;;;;;17.77;16.33;;;;;;;30.67;42.63;100766.66;5055840;28;20177;-75
2022/08/17 06:42:39;;;;;;;17.87;16.47;;;;;;;31.32;41.28;100759.91;5041137;28;20491;-75
2022/08/17 06:45:15;;;;;;;19.30;17.67;;;;;;;31.88;39.96;100764.53;5040940;28;20444;-75
2022/08/17 06:48:00;;;;;;;18.63;16.83;;;;;;;32.20;39.12;100763.78;5038924;28;20461;-74
2022/08/17 06:50:34;;;;;;;17.10;15.80;;;;;;;32.66;38.51;100760.97;5039586;28;20491;-77
2022/08/17 06:53:38;;;;;;;17.63;16.03;;;;;;;32.21;39.26;100762.81;5039099;28;20687;-78
2022/08/17 06:56:10;;;;;;;18.20;16.40;;;;;;;31.15;40.96;100772.03;5038893;28;20458;-78
2022/08/17 06:58:37;;;;;;;17.63;16.27;;;;;;;30.38;42.71;100777.72;5055617;28;20417;-78
2022/08/17 07:01:08;;;;;;;16.57;15.20;;;;;;;31.63;40.28;100767.47;5039860;28;20431;-80
2022/08/17 07:03:45;;;;;;;17.80;16.10;;;;;;;32.59;38.61;100768.72;5039534;28;20467;-79
2022/08/17 07:06:17;;;;;;;18.10;16.50;;;;;;;33.19;37.69;100755.59;5055292;28;20726;-80
2022/08/17 07:09:04;;;;;;;16.73;15.43;;;;;;;31.16;40.42;100771.06;5055240;28;20790;-80
2022/08/17 07:11:33;;;;;;;16.43;14.80;;;;;;;32.29;38.87;100770.28;5055335;28;20412;-77
2022/08/17 07:14:27;;;;;;;15.30;13.90;;;;;;;32.08;39.19;100770.16;5039228;28;20424;-81
2022/08/17 07:16:54;;;;;;;15.63;14.30;;;;;;;32.05;38.43;100770.41;5055517;28;20407;-81
2022/08/17 07:19:24;;;;;;;14.40;13.10;;;;;;;32.33;38.83;100763.66;5054926;28;20425;-79
2022/08/17 07:21:59;;;;;;;15.27;14.13;;;;;;;32.89;37.01;100770.75;5054913;28;20482;-80
2022/08/17 07:24:24;;;;;;;14.90;13.80;;;;;;;33.66;36.24;100771.38;5055087;28;20736;-79
2022/08/17 07:27:13;;;;;;;14.43;13.23;;;;;;;34.13;35.33;100765.47;5038971;28;20421;-77
2022/08/17 07:30:06;;;;;;;14.27;13.03;;;;;;;32.44;37.96;100778.94;5038902;28;20200;-78
2022/08/17 07:32:41;;;;;;;15.60;14.10;;;;;;;32.55;37.25;100778.91;5038907;28;20468;-78
2022/08/17 07:35:09;;;;;;;13.77;12.73;;;;;;;33.77;35.59;100777.69;5039062;28;20523;-78
2022/08/17 07:37:40;;;;;;;14.77;13.27;;;;;;;31.94;38.66;100770.44;5038838;28;20401;-78
2022/08/17 07:40:16;;;;;;;14.60;13.30;;;;;;;32.31;37.51;100772.84;5037985;28;20797;-77
2022/08/17 07:42:59;;;;;;;13.70;12.40;;;;;;;32.72;37.16;100768.59;5038556;28;20480;-77
2022/08/17 07:48:20;;;;;;;13.67;12.30;;;;;;;32.81;36.65;100770.50;5038148;28;20424;-75
2022/08/17 07:50:45;;;;;;;13.77;12.43;;;;;;;30.89;39.63;100774.84;5037828;28;20409;-77
2022/08/17 07:53:23;;;;;;;13.60;12.37;;;;;;;30.68;40.83;100773.78;5038408;28;20824;-75
2022/08/17 07:55:50;;;;;;;13.57;12.43;;;;;;;28.56;45.39;100783.00;5038302;28;20313;-75
2022/08/17 07:58:22;;;;;;;14.60;12.73;;;;;;;30.73;40.91;100782.34;5037972;28;20448;-76
2022/08/17 08:01:14;;;;;;;12.80;11.70;;;;;;;31.05;40.66;100784.47;5056152;28;20432;-75
2022/08/17 08:03:44;;;;;;;13.13;11.83;;;;;;;28.96;43.99;100795.66;5058129;28;20487;-75
2022/08/17 08:06:22;;;;;;;12.70;11.70;;;;;;;29.58;43.54;100789.66;5058349;28;20412;-76
2022/08/17 08:08:53;;;;;;;12.70;11.60;;;;;;;31.33;39.65;100790.44;5058205;28;20426;-77
2022/08/17 08:11:35;;;;;;;13.93;11.13;;;;;;;30.56;40.86;100781.75;5058170;28;20709;-75
2022/08/17 08:14:38;;;;;;;12.50;11.40;;;;;;;28.83;43.69;100790.22;5058096;28;20470;-77
2022/08/17 08:17:06;;;;;;;14.33;11.33;;;;;;;30.33;41.55;100794.19;4977193;28;20813;-77
2022/08/17 08:19:32;;;;;;;12.27;11.10;;;;;;;30.55;40.51;100793.53;5044118;28;20412;-77
2022/08/17 08:22:09;;;;;;;11.43;10.57;;;;;;;32.55;36.89;100786.16;5057151;28;20511;-77
2022/08/17 08:24:35;;;;;;;12.03;10.93;;;;;;;31.84;38.02;100791.84;5056946;28;20720;-77
2022/08/17 08:27:28;;;;;;;11.47;10.47;;;;;;;32.77;35.74;100790.63;5058162;28;20416;-77
2022/08/17 08:29:59;;;;;;;10.73;9.80;;;;;;;32.14;38.49;100802.03;5057458;28;20173;-77
2022/08/17 08:32:27;;;;;;;9.80;9.00;;;;;;;30.58;39.00;100805.88;5057855;28;20439;-77
2022/08/17 08:35:07;;;;;;;10.00;9.30;;;;;;;31.00;38.87;100803.63;5057750;28;20412;-77
2022/08/17 08:37:48;;;;;;;11.03;10.13;;;;;;;29.58;41.71;100805.78;5057858;28;20412;-86
2022/08/17 08:40:42;;;;;;;10.50;9.60;;;;;;;33.58;34.44;100799.09;5057842;28;20408;-85
2022/08/17 08:43:11;;;;;;;9.47;8.57;;;;;;;30.68;39.27;100814.13;5058360;28;20466;-75
2022/08/17 08:45:57;;;;;;;9.40;8.70;;;;;;;32.90;35.07;100801.28;5057671;28;20412;-75
2022/08/17 08:48:40;;;;;;;9.40;8.40;;;;;;;32.33;35.28;100803.28;5057791;28;20683;-76
2022/08/17 08:51:28;;;;;;;9.80;8.83;;;;;;;33.60;33.56;100800.78;5057699;28;20404;-80
2022/08/17 08:54:03;;;;;;;14.00;9.70;;;;;;;35.53;30.70;100795.06;5057574;28;20420;-78
2022/08/17 08:56:41;;;;;;;9.57;7.90;;;;;;;35.80;30.58;100801.50;5056505;28;20454;-76
2022/08/17 08:59:29;;;;;;;7.47;6.80;;;;;;;34.39;31.30;100801.00;5057577;28;20797;-78
2022/08/17 09:02:16;;;;;;;8.00;7.20;;;;;;;36.84;28.26;100797.69;5057547;28;20416;-76
2022/08/17 09:05:02;;;;;;;8.70;7.20;;;;;;;37.12;27.99;100796.72;5057441;28;20424;-76
2022/08/17 09:07:49;;;;;;;8.77;7.90;;;;;;;35.55;30.22;100808.47;5056887;28;20419;-76
2022/08/17 09:10:26;;;;;;;7.20;6.60;;;;;;;35.82;29.14;100802.22;5057760;28;20530;-76
2022/08/17 09:13:15;;;;;;;7.97;6.97;;;;;;;32.54;33.83;100814.13;5056702;28;20486;-76
2022/08/17 09:15:45;;;;;;;7.90;7.17;;;;;;;33.70;32.43;100815.22;5056856;28;20412;-79
2022/08/17 09:18:37;;;;;;;7.17;6.57;;;;;;;37.14;27.71;100806.41;5057307;28;20423;-76
2022/08/17 09:21:25;;;;;;;7.23;6.63;;;;;;;37.46;27.14;100799.53;5046095;28;20427;-75
2022/08/17 09:24:03;;;;;;;11.50;7.70;;;;;;;36.60;27.78;100811.00;5046433;28;20455;-77
2022/08/17 09:26:58;;;;;;;10.63;6.90;;;;;;;36.10;28.36;100802.25;5056641;28;20679;-78
2022/08/17 09:29:26;;;;;;;6.97;6.20;;;;;;;35.36;29.05;100806.66;5050254;28;20527;-78
2022/08/17 09:31:57;;;;;;;6.90;6.30;;;;;;;36.66;27.00;100808.53;5060501;28;20682;-73
2022/08/17 09:34:37;;;;;;;7.37;6.87;;;;;;;35.53;28.51;100805.03;5060889;28;20453;-76
2022/08/17 09:37:31;;;;;;;10.37;7.33;;;;;;;34.56;30.16;100807.59;5060941;28;20457;-76
2022/08/17 09:40:07;;;;;;;8.53;7.30;;;;;;;33.97;31.39;100813.81;5060144;28;20412;-75
2022/08/17 09:42:42;;;;;;;7.87;7.17;;;;;;;34.68;30.67;100804.75;5060722;28;20718;-75
2022/08/17 09:45:27;;;;;;;8.83;7.40;;;;;;;34.57;30.60;100806.63;5060247;28;20431;-77
2022/08/17 09:48:17;;;;;;;8.13;7.33;;;;;;;34.71;30.59;100805.34;5059668;28;20415;-78
2022/08/17 09:50:48;;;;;;;8.40;7.77;;;;;;;35.07;30.11;100804.78;5059999;28;20412;-76
2022/08/17 09:53:14;;;;;;;8.13;7.20;;;;;;;35.81;28.58;100802.38;5059793;28;20442;-78
2022/08/17 09:56:07;;;;;;;7.90;7.10;;;;;;;33.86;31.90;100810.22;5060288;28;20459;-77
2022/08/17 09:59:05;;;;;;;8.53;7.73;;;;;;;33.47;33.05;100803.72;5064970;28;20176;-78
2022/08/17 10:01:37;;;;;;;8.43;7.60;;;;;;;34.40;30.80;100807.28;5060804;28;20514;-78
2022/08/17 10:04:21;;;;;;;8.60;7.77;;;;;;;34.84;30.46;100805.06;5059897;28;20451;-77
2022/08/17 10:07:04;;;;;;;9.33;7.93;;;;;;;34.69;31.15;100806.47;5060244;28;20404;-77
2022/08/17 10:09:56;;;;;;;8.67;7.73;;;;;;;34.65;31.74;100805.03;5060314;28;20408;-77
2022/08/17 10:12:32;;;;;;;8.33;7.53;;;;;;;34.87;31.43;100803.94;5059506;28;20420;-79
2022/08/17 10:15:04;;;;;;;8.57;7.87;;;;;;;35.29;31.26;100806.34;5059583;28;20407;-77
2022/08/17 10:18:26;;;;;;;8.97;8.20;;;;;;;34.13;33.25;100800.63;5059683;28;20416;-80
2022/08/17 10:26:36;;;;;;;9.00;8.20;;;;;;;34.45;32.48;100805.03;4988176;28;20426;-77
2022/08/17 10:29:08;;;;;;;9.33;8.40;;;;;;;34.48;32.25;100804.75;5055922;28;20405;-77
2022/08/17 10:31:46;;;;;;;8.50;7.70;;;;;;;35.25;30.98;100800.34;5039694;28;20731;-78
2022/08/17 10:34:24;;;;;;;9.00;8.10;;;;;;;35.01;31.51;100799.97;5040083;28;20490;-78
2022/08/17 10:37:03;;;;;;;8.30;7.60;;;;;;;35.25;31.62;100792.22;5039896;28;20463;-78
2022/08/17 10:39:41;;;;;;;8.33;7.70;;;;;;;34.68;31.73;100791.22;5040585;28;20467;-82
2022/08/17 10:42:31;;;;;;;8.97;8.07;;;;;;;33.98;33.64;100794.75;5038862;28;20413;-83
2022/08/17 10:45:17;;;;;;;9.47;8.60;;;;;;;33.79;32.96;100792.81;5026956;28;20417;-77
2022/08/17 10:48:35;;;;;;;8.80;8.10;;;;;;;33.68;32.99;100790.16;5039712;28;20409;-77
2022/08/17 10:51:08;;;;;;;8.73;7.97;;;;;;;33.73;33.71;100785.22;5039453;28;20416;-79
2022/08/17 10:53:33;;;;;;;9.33;8.43;;;;;;;33.41;34.15;100784.34;5039761;28;20813;-79
2022/08/17 10:56:11;;;;;;;8.90;8.10;;;;;;;34.07;32.53;100787.63;5039417;28;20445;-82
2022/08/17 10:58:45;;;;;;;8.77;8.10;;;;;;;32.26;35.24;100778.63;5039630;28;20189;-75
2022/08/17 11:01:11;;;;;;;9.10;8.40;;;;;;;33.47;34.07;100788.34;5039298;28;20413;-77
2022/08/17 11:03:51;;;;;;;8.80;7.90;;;;;;;33.81;33.43;100788.13;5039131;28;20463;-77
2022/08/17 11:06:36;;;;;;;9.00;8.20;;;;;;;32.95;35.12;100790.09;5054982;28;20413;-77
2022/08/17 11:09:20;;;;;;;9.20;8.13;;;;;;;31.74;35.56;100786.34;5028481;28;20413;-76
2022/08/17 11:12:05;;;;;;;8.40;7.70;;;;;;;33.31;34.09;100779.84;5039919;28;20488;-79
2022/08/17 11:14:56;;;;;;;8.20;7.60;;;;;;;33.13;33.14;100791.22;5064613;28;20445;-77
2022/08/17 11:17:49;;;;;;;8.53;7.73;;;;;;;32.04;34.80;100785.75;5039559;28;20424;-77
2022/08/17 11:20:54;;;;;;;8.60;7.73;;;;;;;31.99;35.47;100789.75;5055214;28;20409;-77
2022/08/17 11:23:30;;;;;;;8.40;7.80;;;;;;;31.82;35.67;100778.50;5054973;28;20456;-77
2022/08/17 11:26:02;;;;;;;9.63;8.53;;;;;;;31.48;36.51;100786.53;5039098;28;20412;-76
2022/08/17 11:28:33;;;;;;;9.47;8.53;;;;;;;31.57;36.25;100777.72;5038523;28;20420;-77
2022/08/17 11:31:08;;;;;;;8.90;8.20;;;;;;;30.95;36.57;100778.91;5039075;28;20432;-75
2022/08/17 11:33:34;;;;;;;8.93;7.83;;;;;;;31.09;38.13;100774.31;5038141;28;20420;-77
2022/08/17 11:36:14;;;;;;;8.73;7.90;;;;;;;32.55;34.99;100778.06;5038900;28;20405;-75
2022/08/17 11:38:56;;;;;;;9.20;8.40;;;;;;;31.07;36.58;100785.22;5038099;28;20261;-76
2022/08/17 11:41:47;;;;;;;9.23;7.73;;;;;;;32.41;34.83;100779.22;5038879;28;20479;-81
2022/08/17 11:44:36;;;;;;;8.70;7.90;;;;;;;32.06;34.90;100775.66;5040589;28;20460;-80
2022/08/17 11:52:49;;;;;;;9.03;8.23;;;;;;;32.22;33.94;100769.91;5038348;28;20415;-78
2022/08/17 11:55:36;;;;;;;8.47;7.63;;;;;;;32.18;34.27;100773.00;5038927;28;20468;-76
2022/08/17 11:58:24;;;;;;;8.27;7.60;;;;;;;32.31;36.36;100775.53;5051340;28;20525;-67
2022/08/17 12:00:55;;;;;;;8.50;7.67;;;;;;;32.17;34.83;100772.13;5044322;28;20889;-68
2022/08/17 12:03:32;;;;;;;8.03;7.33;;;;;;;32.05;34.08;100770.41;5057499;28;20464;-77
2022/08/17 12:06:04;;;;;;;9.57;8.60;;;;;;;31.06;36.35;100773.56;5058385;28;20687;-75
2022/08/17 12:08:31;;;;;;;12.10;7.73;;;;;;;32.08;34.47;100771.03;5057309;28;20424;-76